Time;durP1;ratioP1;P1;durP2;ratioP2;P2;SDS_P1;SDS_P2;PMS_P1;PMS_P2;Temp;Humidity;BMP_temperature;BMP_pressure;BME280_temperature;BME280_humidity;BME280_pressure;Samples;Min_cycle;Max_cycle;Signal;HPM_P1;HPM_P2
2021/11/06 00:02:25;;;;;;;7.30;4.78;;;;;;;10.07;61.99;102754.06;4997690;28;124018;-69
2021/11/06 00:04:52;;;;;;;9.25;4.85;;;;;;;10.06;61.76;102743.50;5009372;28;123875;-69
2021/11/06 00:07:19;;;;;;;8.48;5.00;;;;;;;10.03;61.85;102744.41;5002378;28;114052;-70
2021/11/06 00:09:46;;;;;;;8.90;4.65;;;;;;;10.01;61.81;102751.50;4998953;28;113986;-69
2021/11/06 00:12:14;;;;;;;8.98;5.07;;;;;;;9.98;61.76;102745.34;4998177;28;124778;-70
2021/11/06 00:14:41;;;;;;;9.40;5.25;;;;;;;9.96;61.63;102736.56;5006808;28;123796;-69
2021/11/06 00:17:09;;;;;;;10.82;5.32;;;;;;;9.93;61.93;102727.75;4980626;28;113212;-69
2021/11/06 00:19:36;;;;;;;11.25;5.20;;;;;;;9.90;61.67;102733.09;4978354;28;113435;-70
2021/11/06 00:22:04;;;;;;;9.10;5.70;;;;;;;9.87;61.64;102737.53;5001737;28;123660;-69
2021/11/06 00:24:32;;;;;;;10.77;5.30;;;;;;;9.84;61.96;102738.47;5009611;28;122925;-70
2021/11/06 00:26:59;;;;;;;12.88;5.43;;;;;;;9.82;62.17;102734.97;5005426;28;114785;-70
2021/11/06 00:29:27;;;;;;;10.27;5.88;;;;;;;9.80;61.90;102731.44;5007917;28;113119;-69
2021/11/06 00:31:55;;;;;;;12.07;6.10;;;;;;;9.78;61.58;102733.25;5006025;28;124762;-70
2021/11/06 00:34:22;;;;;;;11.23;5.82;;;;;;;9.76;61.86;102735.03;5006804;28;124097;-70
2021/11/06 00:36:50;;;;;;;12.40;5.53;;;;;;;9.73;62.04;102735.06;5011067;28;114139;-70
2021/11/06 00:39:17;;;;;;;11.88;5.68;;;;;;;9.71;61.99;102731.56;5001452;28;114382;-70
2021/11/06 00:41:44;;;;;;;9.57;6.00;;;;;;;9.69;61.89;102733.34;5007208;28;124087;-69
2021/11/06 00:44:11;;;;;;;15.70;5.93;;;;;;;9.68;62.03;102736.88;5007507;28;122649;-70
2021/11/06 00:46:39;;;;;;;13.45;6.07;;;;;;;9.66;61.99;102730.72;5004328;28;115780;-69
2021/11/06 00:49:06;;;;;;;11.50;5.60;;;;;;;9.64;61.81;102735.16;5008184;28;114384;-69
2021/11/06 00:51:33;;;;;;;11.68;6.03;;;;;;;9.62;62.19;102729.88;5003074;28;124351;-69
2021/11/06 00:54:00;;;;;;;14.07;6.25;;;;;;;9.60;61.92;102739.59;5004895;28;123869;-69
2021/11/06 00:56:27;;;;;;;13.50;6.07;;;;;;;9.58;62.16;102745.81;5002815;28;113015;-69
2021/11/06 00:58:54;;;;;;;17.90;6.63;;;;;;;9.57;62.05;102749.31;5011473;28;113171;-69
2021/11/06 01:01:22;;;;;;;14.90;6.90;;;;;;;9.54;61.83;102743.19;5008190;28;123597;-69
2021/11/06 01:03:49;;;;;;;14.43;6.65;;;;;;;9.52;61.94;102744.97;5010209;28;123791;-69
2021/11/06 01:06:16;;;;;;;23.05;7.10;;;;;;;9.52;62.02;102752.91;4999430;28;114250;-69
2021/11/06 01:08:43;;;;;;;17.85;6.88;;;;;;;9.50;62.23;102744.09;5003442;28;114117;-68
2021/11/06 01:11:11;;;;;;;18.02;7.28;;;;;;;9.49;62.02;102752.94;5002091;28;124626;-68
2021/11/06 01:13:38;;;;;;;20.13;7.43;;;;;;;9.47;61.86;102749.41;5007253;28;123663;-68
2021/11/06 01:16:05;;;;;;;16.67;6.78;;;;;;;9.46;62.01;102747.69;5007520;28;114139;-68
2021/11/06 01:18:33;;;;;;;17.55;7.57;;;;;;;9.45;62.16;102745.91;5000267;28;114382;-68
2021/11/06 01:21:01;;;;;;;18.52;7.00;;;;;;;9.43;61.90;102747.69;4994892;28;123958;-69
2021/11/06 01:23:28;;;;;;;19.65;7.68;;;;;;;9.42;62.04;102745.97;4999700;28;125114;-69
2021/11/06 01:25:55;;;;;;;24.83;7.80;;;;;;;9.41;62.09;102743.31;5006878;28;114280;-69
2021/11/06 01:28:23;;;;;;;20.33;8.07;;;;;;;9.40;62.22;102742.47;4991144;28;117268;-69
2021/11/06 01:30:50;;;;;;;17.70;7.32;;;;;;;9.39;62.02;102751.28;5008853;28;123152;-69
2021/11/06 01:33:17;;;;;;;20.65;7.55;;;;;;;9.38;62.12;102751.28;5008869;28;123982;-69
2021/11/06 01:35:45;;;;;;;19.10;8.05;;;;;;;9.36;61.94;102746.00;5003107;28;115225;-69
2021/11/06 01:38:12;;;;;;;20.27;7.70;;;;;;;9.34;62.10;102742.50;5006895;28;113752;-69
2021/11/06 01:40:39;;;;;;;21.35;7.95;;;;;;;9.32;62.33;102741.63;5007648;28;124307;-69
2021/11/06 01:43:07;;;;;;;19.88;7.68;;;;;;;9.31;62.40;102737.25;5007670;28;123189;-70
2021/11/06 01:45:35;;;;;;;23.20;8.20;;;;;;;9.31;62.09;102742.53;5007243;28;114674;-70
2021/11/06 01:48:02;;;;;;;28.13;7.80;;;;;;;9.29;61.96;102739.03;5007844;28;113986;-70
2021/11/06 01:50:29;;;;;;;20.50;7.68;;;;;;;9.29;61.89;102744.31;5004891;28;123816;-70
2021/11/06 01:52:56;;;;;;;19.42;8.27;;;;;;;9.28;61.98;102742.56;5006789;28;124298;-70
2021/11/06 01:55:24;;;;;;;18.73;8.02;;;;;;;9.26;62.12;102733.75;4996776;28;114586;-70
2021/11/06 01:57:53;;;;;;;18.52;8.32;;;;;;;9.26;61.94;102733.75;5007904;28;114382;-70
2021/11/06 02:00:24;;;;;;;21.38;8.00;;;;;;;9.25;62.28;102737.28;5005479;28;124009;-69
2021/11/06 02:02:52;;;;;;;18.20;7.50;;;;;;;9.25;62.12;102726.72;5005809;28;124194;-70
2021/11/06 02:05:19;;;;;;;21.60;7.90;;;;;;;9.25;62.16;102726.72;5009491;28;114234;-70
2021/11/06 02:07:46;;;;;;;21.70;7.95;;;;;;;9.24;62.01;102724.97;5012686;28;113551;-70
2021/11/06 02:10:14;;;;;;;23.02;8.05;;;;;;;9.23;62.18;102723.22;5007828;28;124838;-70
2021/11/06 02:12:43;;;;;;;18.50;7.50;;;;;;;9.22;62.47;102722.34;5007139;28;123665;-70
2021/11/06 02:15:14;;;;;;;19.30;7.93;;;;;;;9.22;62.22;102726.75;5007161;28;114765;-70
2021/11/06 02:17:42;;;;;;;22.15;7.88;;;;;;;9.23;62.49;102720.56;5003657;28;114665;-70
2021/11/06 02:20:10;;;;;;;20.35;8.15;;;;;;;9.22;62.31;102721.47;5009115;28;123923;-69
2021/11/06 02:22:38;;;;;;;15.95;7.05;;;;;;;9.22;62.25;102722.34;5010303;28;123731;-70
2021/11/06 02:25:06;;;;;;;15.02;7.53;;;;;;;9.22;62.08;102717.06;5002700;28;115819;-70
2021/11/06 02:27:34;;;;;;;20.08;7.85;;;;;;;9.23;62.49;102723.22;4998213;28;115492;-70
2021/11/06 02:30:04;;;;;;;18.55;7.80;;;;;;;9.23;62.44;102720.56;5001209;28;124605;-70
2021/11/06 02:32:31;;;;;;;18.30;7.80;;;;;;;9.24;62.53;102719.69;5010593;28;124687;-70
2021/11/06 02:34:59;;;;;;;15.23;7.72;;;;;;;9.25;62.39;102721.41;5008617;28;114253;-70
2021/11/06 02:37:26;;;;;;;19.90;8.27;;;;;;;9.28;62.66;102721.41;5006581;28;114072;-69
2021/11/06 02:39:53;;;;;;;18.15;7.75;;;;;;;9.27;62.44;102714.38;4999192;28;124113;-69
2021/11/06 02:42:20;;;;;;;14.38;7.15;;;;;;;9.29;62.71;102717.88;5008670;28;123510;-70
2021/11/06 02:44:48;;;;;;;17.70;7.78;;;;;;;9.31;62.63;102713.47;5006466;28;114102;-69
2021/11/06 02:47:15;;;;;;;17.42;8.05;;;;;;;9.32;62.68;102723.13;5004170;28;113827;-69
2021/11/06 02:49:42;;;;;;;15.25;7.88;;;;;;;9.33;62.52;102724.91;5007125;28;124046;-69
2021/11/06 02:52:09;;;;;;;18.60;7.85;;;;;;;9.33;62.34;102714.31;5009191;28;123887;-70
2021/11/06 02:54:37;;;;;;;14.40;7.43;;;;;;;9.34;62.45;102710.75;5006631;28;114081;-70
2021/11/06 02:57:04;;;;;;;16.15;7.68;;;;;;;9.33;62.68;102712.53;5004201;28;113887;-70
2021/11/06 02:59:31;;;;;;;18.17;8.23;;;;;;;9.35;62.73;102717.81;5007050;28;124896;-70
2021/11/06 03:01:59;;;;;;;19.73;8.40;;;;;;;9.36;62.51;102719.56;4999365;28;123678;-70
2021/11/06 03:04:26;;;;;;;15.52;7.18;;;;;;;9.36;62.54;102722.19;5002152;28;114059;-70
2021/11/06 03:06:53;;;;;;;13.88;7.15;;;;;;;9.37;62.33;102721.31;5006499;28;114578;-70
2021/11/06 03:09:22;;;;;;;21.27;7.65;;;;;;;9.37;62.32;102720.44;4980554;28;123970;-70
2021/11/06 03:11:49;;;;;;;15.85;7.53;;;;;;;9.37;62.40;102726.59;5008861;28;123910;-69
2021/11/06 03:14:18;;;;;;;19.75;8.52;;;;;;;9.37;62.13;102726.59;5008853;28;115202;-70
2021/11/06 03:16:45;;;;;;;15.38;7.97;;;;;;;9.38;62.42;102728.38;5000624;28;114889;-70
2021/11/06 03:19:13;;;;;;;18.05;8.07;;;;;;;9.38;62.58;102723.09;5003504;28;124741;-69
2021/11/06 03:21:40;;;;;;;13.00;7.40;;;;;;;9.39;62.46;102719.53;5005375;28;123925;-68
2021/11/06 03:24:07;;;;;;;15.50;7.43;;;;;;;9.39;62.43;102719.53;5004590;28;114967;-69
2021/11/06 03:26:35;;;;;;;14.50;7.07;;;;;;;9.38;62.55;102723.09;4996018;28;114361;-68
2021/11/06 03:29:02;;;;;;;19.50;7.88;;;;;;;9.39;62.46;102724.81;5022612;22;123818;-72
2021/11/06 03:31:30;;;;;;;16.73;7.55;;;;;;;9.40;62.48;102726.59;5007039;28;123935;-72
2021/11/06 03:33:57;;;;;;;16.40;7.78;;;;;;;9.40;62.31;102723.03;5006718;28;113779;-72
2021/11/06 03:36:24;;;;;;;13.55;8.13;;;;;;;9.40;62.40;102720.41;5002300;28;113201;-72
2021/11/06 03:38:51;;;;;;;11.70;7.13;;;;;;;9.40;62.29;102721.31;5009923;28;124272;-72
2021/11/06 03:41:18;;;;;;;13.70;7.32;;;;;;;9.41;62.55;102716.88;5020765;28;124604;-71
2021/11/06 03:43:45;;;;;;;16.48;8.00;;;;;;;9.42;62.30;102714.22;5022092;28;114435;-71
2021/11/06 03:46:12;;;;;;;13.20;6.90;;;;;;;9.43;62.31;102709.81;5031105;28;114329;-71
2021/11/06 03:48:40;;;;;;;14.88;7.63;;;;;;;9.44;62.40;102701.84;5029145;28;122874;-72
2021/11/06 03:51:07;;;;;;;13.93;7.75;;;;;;;9.44;62.45;102706.28;5026776;28;122839;-71
2021/11/06 03:53:34;;;;;;;13.57;7.55;;;;;;;9.45;62.49;102708.88;5018232;28;114238;-72
2021/11/06 03:56:02;;;;;;;12.05;6.95;;;;;;;9.45;62.35;102703.59;5024742;28;113976;-72
2021/11/06 03:58:30;;;;;;;13.25;7.13;;;;;;;9.47;62.47;102704.44;5027900;28;124047;-72
2021/11/06 04:00:57;;;;;;;13.60;7.88;;;;;;;9.48;62.41;102693.00;5025698;28;122828;-72
2021/11/06 04:03:24;;;;;;;12.32;7.43;;;;;;;9.49;62.67;102700.06;5029374;28;115143;-72
2021/11/06 04:05:51;;;;;;;12.95;7.10;;;;;;;9.50;62.62;102690.34;5030493;28;114972;-72
2021/11/06 04:08:19;;;;;;;13.18;7.70;;;;;;;9.52;62.33;102694.72;5013656;28;124435;-72
2021/11/06 04:10:46;;;;;;;13.98;7.53;;;;;;;9.54;62.28;102692.91;5000808;28;123337;-72
2021/11/06 04:13:13;;;;;;;13.15;7.05;;;;;;;9.54;62.15;102692.91;5015614;28;114993;-72
2021/11/06 04:15:42;;;;;;;13.18;7.13;;;;;;;9.55;62.31;102694.69;5026800;28;113492;-72
2021/11/06 04:18:09;;;;;;;14.73;7.22;;;;;;;9.57;62.32;102701.72;5023462;28;124027;-72
2021/11/06 04:20:36;;;;;;;15.75;7.28;;;;;;;9.59;62.37;102692.00;5022445;28;122696;-72
2021/11/06 04:23:04;;;;;;;14.05;7.40;;;;;;;9.61;62.59;102692.88;5025301;28;114213;-72
2021/11/06 04:25:31;;;;;;;11.50;7.03;;;;;;;9.62;62.41;102699.91;5011436;28;113136;-72
2021/11/06 04:27:59;;;;;;;16.08;7.70;;;;;;;9.63;62.57;102699.88;5019270;28;123150;-72
2021/11/06 04:30:26;;;;;;;13.77;7.13;;;;;;;9.65;62.25;102705.16;5019961;28;123683;-72
2021/11/06 04:32:53;;;;;;;14.43;6.97;;;;;;;9.66;62.51;102706.91;5025080;28;114036;-72
2021/11/06 04:35:20;;;;;;;14.63;7.78;;;;;;;9.67;62.41;102713.97;5029877;28;114038;-72
2021/11/06 04:37:48;;;;;;;12.73;7.20;;;;;;;9.69;62.53;102701.59;5028728;28;123704;-71
2021/11/06 04:40:15;;;;;;;15.20;7.80;;;;;;;9.71;62.42;102705.09;5023520;28;123834;-72
2021/11/06 04:42:43;;;;;;;13.35;6.82;;;;;;;9.72;62.43;102712.16;5024869;28;113726;-72
2021/11/06 04:45:12;;;;;;;12.48;7.20;;;;;;;9.72;62.10;102701.56;5016506;28;114116;-72
2021/11/06 04:47:40;;;;;;;11.75;7.28;;;;;;;9.75;62.44;102706.81;5020348;28;124726;-72
2021/11/06 04:50:09;;;;;;;14.40;7.28;;;;;;;9.75;62.66;102698.88;5014503;27;122714;-72
2021/11/06 04:52:37;;;;;;;12.27;6.72;;;;;;;9.77;62.46;102694.44;5025563;28;115099;-71
2021/11/06 04:55:07;;;;;;;13.25;7.40;;;;;;;9.77;62.22;102688.28;5026048;28;115433;-72
2021/11/06 04:57:35;;;;;;;12.98;7.35;;;;;;;9.77;62.41;102696.22;5024806;28;123647;-72
2021/11/06 05:00:09;;;;;;;12.45;7.03;;;;;;;9.77;62.11;102693.56;5025469;28;124122;-71
2021/11/06 05:02:36;;;;;;;12.85;6.97;;;;;;;9.76;62.20;102690.06;5030237;28;113620;-72
2021/11/06 05:05:05;;;;;;;13.27;7.03;;;;;;;9.76;62.05;102687.41;5023018;28;113970;-72
2021/11/06 05:07:32;;;;;;;12.48;7.00;;;;;;;9.77;62.44;102694.44;5012148;28;122960;-71
2021/11/06 05:09:59;;;;;;;13.88;7.30;;;;;;;9.77;62.42;102689.13;5028127;28;124099;-72
2021/11/06 05:12:26;;;;;;;11.57;7.43;;;;;;;9.78;62.20;102690.91;5025920;28;114492;-72
2021/11/06 05:14:53;;;;;;;13.80;7.05;;;;;;;9.80;62.37;102693.53;5021289;28;113355;-72
2021/11/06 05:17:20;;;;;;;12.10;6.65;;;;;;;9.80;62.10;102694.41;5027041;28;124406;-72
2021/11/06 05:19:48;;;;;;;11.48;6.68;;;;;;;9.81;62.12;102696.13;5021134;28;124257;-72
2021/11/06 05:22:15;;;;;;;12.57;6.93;;;;;;;9.81;62.08;102696.13;5012917;28;113216;-72
2021/11/06 05:24:42;;;;;;;11.18;6.22;;;;;;;9.81;62.47;102701.44;5022113;28;114346;-71
2021/11/06 05:27:09;;;;;;;11.85;7.00;;;;;;;9.81;62.28;102701.44;5009854;28;124031;-72
2021/11/06 05:29:53;;;;;;;14.43;6.40;;;;;;;9.82;62.40;102697.91;5023443;28;123441;-72
2021/11/06 05:32:21;;;;;;;11.35;7.03;;;;;;;9.84;62.23;102706.69;5024081;28;114490;-72
2021/11/06 05:34:48;;;;;;;12.45;6.85;;;;;;;9.85;62.09;102705.81;5026428;28;114062;-72
2021/11/06 05:37:15;;;;;;;12.63;7.18;;;;;;;9.85;62.28;102700.53;5026454;28;123769;-72
2021/11/06 05:39:42;;;;;;;12.35;6.28;;;;;;;9.86;62.04;102699.63;5022037;28;124458;-71
2021/11/06 05:42:09;;;;;;;13.02;6.78;;;;;;;9.86;62.02;102704.91;5026675;28;116260;-71
2021/11/06 05:44:36;;;;;;;12.23;6.82;;;;;;;9.86;62.26;102710.19;5026771;28;114243;-72
2021/11/06 05:47:03;;;;;;;11.45;6.68;;;;;;;9.87;62.15;102706.69;5028704;28;123915;-72
2021/11/06 05:49:30;;;;;;;11.65;6.47;;;;;;;9.87;62.07;102701.38;5029730;28;123628;-72
2021/11/06 05:51:58;;;;;;;12.63;6.68;;;;;;;9.87;62.20;102696.09;5023747;28;114451;-72
2021/11/06 05:54:25;;;;;;;13.23;6.43;;;;;;;9.89;62.16;102691.66;5024522;28;113753;-72
2021/11/06 05:56:52;;;;;;;11.25;6.47;;;;;;;9.90;62.21;102690.75;5006924;28;123408;-72
2021/11/06 05:59:20;;;;;;;14.13;7.15;;;;;;;9.92;62.06;102694.25;5018737;28;123158;-71
2021/11/06 06:01:48;;;;;;;15.73;6.68;;;;;;;9.94;62.01;102697.78;5018578;28;114663;-72
2021/11/06 06:04:15;;;;;;;10.65;6.35;;;;;;;9.94;61.95;102695.13;5024810;28;113697;-72
2021/11/06 06:06:42;;;;;;;10.73;6.22;;;;;;;9.96;62.01;102694.22;5024623;28;123983;-70
2021/11/06 06:09:09;;;;;;;11.57;6.55;;;;;;;9.96;62.19;102688.91;5025388;28;124572;-72
2021/11/06 06:11:36;;;;;;;13.68;6.38;;;;;;;9.94;62.26;102681.88;5025951;28;114497;-72
2021/11/06 06:14:03;;;;;;;13.15;6.75;;;;;;;9.94;62.04;102671.31;5018105;28;113000;-72
2021/11/06 06:16:30;;;;;;;12.73;6.32;;;;;;;9.94;61.88;102676.59;5018410;28;124982;-72
2021/11/06 06:18:57;;;;;;;13.05;6.60;;;;;;;9.95;61.62;102682.75;5021092;28;123681;-72
2021/11/06 06:21:25;;;;;;;16.13;6.97;;;;;;;9.94;61.53;102687.19;5022990;28;114207;-72
2021/11/06 06:23:52;;;;;;;12.85;6.88;;;;;;;9.93;62.09;102687.19;5024610;28;113497;-72
2021/11/06 06:26:20;;;;;;;11.75;6.15;;;;;;;9.93;62.07;102681.91;5026597;28;124869;-72
2021/11/06 06:28:47;;;;;;;11.95;6.80;;;;;;;9.96;61.85;102686.28;5014679;28;125390;-72
2021/11/06 06:31:15;;;;;;;11.85;6.75;;;;;;;9.96;61.96;102688.91;5017093;28;114876;-71
2021/11/06 06:33:42;;;;;;;14.38;6.43;;;;;;;9.97;62.09;102688.03;5010091;28;114663;-71
2021/11/06 06:36:10;;;;;;;11.73;6.32;;;;;;;9.96;61.70;102684.50;5017131;28;123800;-72
2021/11/06 06:38:37;;;;;;;14.50;7.25;;;;;;;9.96;61.56;102688.91;5026166;28;124670;-72
2021/11/06 06:41:04;;;;;;;10.63;6.53;;;;;;;9.93;61.68;102696.00;5025729;28;114001;-72
2021/11/06 06:43:32;;;;;;;12.38;7.03;;;;;;;9.92;61.71;102699.53;5019444;28;113531;-72
2021/11/06 06:45:59;;;;;;;9.45;5.88;;;;;;;9.91;61.61;102697.78;5023238;28;123549;-72
2021/11/06 06:48:27;;;;;;;12.23;6.68;;;;;;;9.93;61.66;102719.81;5026313;28;124463;-72
2021/11/06 06:50:54;;;;;;;14.60;7.50;;;;;;;9.91;61.84;102713.69;5024108;28;114443;-72
2021/11/06 06:53:22;;;;;;;11.23;6.50;;;;;;;9.91;61.63;102715.47;5027777;28;113912;-71
2021/11/06 06:55:49;;;;;;;13.48;6.93;;;;;;;9.89;61.58;102718.13;5018040;28;123804;-72
2021/11/06 06:58:16;;;;;;;12.13;6.47;;;;;;;9.87;61.84;102717.25;5025063;28;123964;-72
2021/11/06 07:00:44;;;;;;;12.57;6.90;;;;;;;9.87;61.62;102711.97;5024691;28;113684;-72
2021/11/06 07:03:12;;;;;;;12.38;6.88;;;;;;;9.88;61.75;102718.13;5025058;28;114329;-72
2021/11/06 07:05:39;;;;;;;11.88;6.75;;;;;;;9.87;61.41;102717.25;5027023;28;123525;-72
2021/11/06 07:08:06;;;;;;;12.88;6.50;;;;;;;9.88;61.61;102718.13;5028054;28;124206;-72
2021/11/06 07:10:34;;;;;;;10.80;6.20;;;;;;;9.88;61.87;102721.66;5027600;28;112726;-72
2021/11/06 07:13:02;;;;;;;13.55;6.90;;;;;;;9.87;62.05;102717.25;5023900;28;113710;-72
2021/11/06 07:15:30;;;;;;;11.88;6.60;;;;;;;9.87;61.55;102719.91;5021683;28;123944;-72
2021/11/06 07:17:57;;;;;;;11.90;6.65;;;;;;;9.88;62.08;102719.00;5025626;28;123872;-72
2021/11/06 07:20:25;;;;;;;12.20;6.60;;;;;;;9.88;61.84;102719.00;5029526;28;116134;-72
2021/11/06 07:22:53;;;;;;;12.50;6.28;;;;;;;9.88;62.12;102723.41;5032047;28;115205;-72
2021/11/06 07:25:21;;;;;;;11.23;6.82;;;;;;;9.89;62.00;102715.47;5029979;28;124870;-72
2021/11/06 07:27:48;;;;;;;13.07;6.70;;;;;;;9.90;61.42;102716.34;5029782;28;125151;-72
2021/11/06 07:30:15;;;;;;;11.88;6.60;;;;;;;9.92;61.87;102723.34;5021433;28;114046;-71
2021/11/06 07:32:42;;;;;;;11.35;6.07;;;;;;;9.95;62.00;102725.09;5029201;28;113739;-72
2021/11/06 07:35:09;;;;;;;12.52;6.57;;;;;;;9.97;61.86;102727.75;5023932;28;125319;-71
2021/11/06 07:37:37;;;;;;;12.48;6.90;;;;;;;9.99;61.90;102726.81;5031192;28;123920;-71
2021/11/06 07:40:08;;;;;;;15.85;7.20;;;;;;;10.02;61.62;102731.19;5021982;28;114891;-72
2021/11/06 07:42:36;;;;;;;11.60;6.30;;;;;;;10.03;62.03;102719.72;5022537;28;113836;-72
2021/11/06 07:45:05;;;;;;;12.90;6.57;;;;;;;10.06;62.06;102733.78;5027385;28;124172;-70
2021/11/06 07:47:32;;;;;;;11.32;6.93;;;;;;;10.07;61.75;102729.38;5030841;28;123817;-72
2021/11/06 07:50:00;;;;;;;11.95;6.72;;;;;;;10.09;61.76;102732.88;5029872;28;113946;-72
2021/11/06 07:52:27;;;;;;;10.45;6.22;;;;;;;10.10;61.97;102729.34;5026494;28;112882;-72
2021/11/06 07:54:54;;;;;;;10.07;5.88;;;;;;;10.12;61.99;102727.53;5027567;28;123797;-72
2021/11/06 07:57:21;;;;;;;10.38;5.97;;;;;;;10.15;61.50;102732.78;5029301;28;123688;-72
2021/11/06 07:59:48;;;;;;;11.95;6.07;;;;;;;10.16;61.80;102723.94;5025252;28;114274;-72
2021/11/06 08:02:16;;;;;;;10.90;6.07;;;;;;;10.16;61.83;102723.94;5020347;28;114680;-72
2021/11/06 08:04:43;;;;;;;12.18;6.28;;;;;;;10.17;61.68;102715.13;5024669;28;123685;-72
2021/11/06 08:07:10;;;;;;;11.70;5.90;;;;;;;10.19;61.95;102712.44;5025980;28;124138;-72
2021/11/06 08:09:37;;;;;;;9.38;5.72;;;;;;;10.20;61.81;102720.38;5017706;28;115092;-72
2021/11/06 08:12:05;;;;;;;10.68;5.90;;;;;;;10.22;61.76;102729.16;5022678;28;114751;-72
2021/11/06 08:14:32;;;;;;;10.80;6.18;;;;;;;10.23;62.00;102725.63;5022928;28;123763;-71
2021/11/06 08:17:00;;;;;;;10.52;5.90;;;;;;;10.25;61.87;102718.53;5027173;28;122934;-72
2021/11/06 08:19:27;;;;;;;12.13;6.15;;;;;;;10.28;61.63;102720.25;5030002;27;114592;-71
2021/11/06 08:21:55;;;;;;;9.10;5.93;;;;;;;10.31;61.60;102722.91;5030746;28;115245;-72
2021/11/06 08:24:23;;;;;;;10.00;6.13;;;;;;;10.33;61.80;102723.75;5025384;28;124117;-72
2021/11/06 08:26:51;;;;;;;10.43;5.78;;;;;;;10.35;61.71;102718.44;5027675;28;122870;-72
2021/11/06 08:29:18;;;;;;;12.52;6.65;;;;;;;10.37;61.90;102721.94;5023225;28;113224;-71
2021/11/06 08:31:45;;;;;;;12.02;6.07;;;;;;;10.40;61.79;102716.63;5025861;28;113503;-72
2021/11/06 08:34:12;;;;;;;10.68;5.80;;;;;;;10.43;62.02;102712.13;5016119;28;124064;-71
2021/11/06 08:36:39;;;;;;;10.48;5.72;;;;;;;10.47;62.12;102707.66;5029480;28;124893;-71
2021/11/06 08:39:07;;;;;;;12.40;6.35;;;;;;;10.51;62.16;102704.97;5030948;28;114337;-71
2021/11/06 08:41:35;;;;;;;14.27;6.18;;;;;;;10.56;62.14;102712.84;5031743;28;114380;-71
2021/11/06 08:44:02;;;;;;;8.70;5.50;;;;;;;10.62;61.71;102707.44;5032238;28;124136;-71
2021/11/06 08:46:29;;;;;;;11.00;6.13;;;;;;;10.68;62.00;102707.34;5031358;28;124737;-71
2021/11/06 08:48:57;;;;;;;11.93;6.10;;;;;;;10.76;62.01;102701.06;5022810;28;114176;-71
2021/11/06 08:51:24;;;;;;;11.25;6.53;;;;;;;10.85;62.06;102698.25;5012016;28;113774;-71
2021/11/06 08:53:51;;;;;;;12.27;6.22;;;;;;;10.93;62.21;102696.34;5018926;28;123992;-71
2021/11/06 08:56:18;;;;;;;12.25;6.00;;;;;;;11.02;62.32;102701.50;5019595;28;123990;-71
2021/11/06 08:58:45;;;;;;;11.52;5.78;;;;;;;11.14;62.21;102699.53;5008731;28;115020;-71
2021/11/06 09:01:13;;;;;;;11.27;5.88;;;;;;;11.23;62.24;102697.59;5005513;28;114716;-71
2021/11/06 09:03:40;;;;;;;8.38;5.43;;;;;;;11.32;61.96;102688.63;5015797;28;123928;-71
2021/11/06 09:06:07;;;;;;;8.80;5.90;;;;;;;11.42;61.96;102684.00;5024847;28;123931;-70
2021/11/06 09:08:36;;;;;;;9.80;5.47;;;;;;;11.50;61.67;102676.75;5006792;28;113222;-71
2021/11/06 09:11:06;;;;;;;10.07;5.47;;;;;;;11.57;61.83;102677.53;5026384;28;112957;-71
2021/11/06 09:13:34;;;;;;;10.20;5.38;;;;;;;11.63;61.87;102680.06;5022159;28;125185;-71
2021/11/06 09:16:04;;;;;;;11.52;5.40;;;;;;;11.68;61.91;102686.16;5025625;28;123760;-71
2021/11/06 09:18:32;;;;;;;9.45;5.25;;;;;;;11.72;61.57;102686.97;5014655;28;114451;-72
2021/11/06 09:21:06;;;;;;;7.88;4.97;;;;;;;11.77;61.60;102691.28;5017354;28;113831;-71
2021/11/06 09:23:34;;;;;;;9.35;4.88;;;;;;;11.83;61.53;102691.16;5026286;28;124002;-71
2021/11/06 09:26:02;;;;;;;9.55;5.00;;;;;;;11.86;61.45;102680.44;5014248;28;123897;-71
2021/11/06 09:28:29;;;;;;;6.45;4.38;;;;;;;11.92;61.45;102683.91;5027020;28;113237;-71
2021/11/06 09:30:57;;;;;;;8.68;5.00;;;;;;;11.96;61.12;102685.59;5028271;28;113756;-71
2021/11/06 09:33:24;;;;;;;8.48;4.63;;;;;;;11.99;61.05;102685.53;5024578;28;123701;-71
2021/11/06 09:35:51;;;;;;;8.98;4.80;;;;;;;12.02;61.14;102690.81;5027963;28;124658;-71
2021/11/06 09:38:18;;;;;;;8.05;4.50;;;;;;;12.07;61.20;102683.59;5023384;28;114090;-71
2021/11/06 09:40:45;;;;;;;8.55;5.10;;;;;;;12.11;61.23;102690.59;5011516;28;114364;-71
2021/11/06 09:43:16;;;;;;;9.57;5.03;;;;;;;12.16;61.25;102699.31;5013840;28;124239;-71
2021/11/06 09:45:44;;;;;;;8.63;4.82;;;;;;;12.19;61.08;102693.97;5023200;28;123648;-70
2021/11/06 09:48:12;;;;;;;8.88;4.90;;;;;;;12.23;60.79;102690.31;5022042;28;115340;-70
2021/11/06 09:50:39;;;;;;;6.95;4.53;;;;;;;12.26;60.86;102695.56;5021606;28;114678;-71
2021/11/06 09:53:06;;;;;;;7.80;4.35;;;;;;;12.26;60.82;102690.25;5024851;28;123855;-70
2021/11/06 09:55:35;;;;;;;7.60;4.40;;;;;;;12.30;60.70;102682.19;5019215;28;124839;-70
2021/11/06 09:58:02;;;;;;;8.18;4.90;;;;;;;12.31;60.50;102691.94;5016855;28;114330;-71
2021/11/06 10:00:29;;;;;;;8.90;4.55;;;;;;;12.34;60.66;102697.16;5009064;28;114278;-71
2021/11/06 10:02:57;;;;;;;9.40;4.78;;;;;;;12.38;60.77;102701.53;5022994;28;124660;-69
2021/11/06 10:05:43;;;;;;;8.30;5.07;;;;;;;12.40;60.62;102691.72;5009090;28;123556;-71
2021/11/06 10:08:35;;;;;;;8.23;4.57;;;;;;;12.44;60.37;102693.41;5011798;28;114098;-71
2021/11/06 10:11:08;;;;;;;6.70;4.38;;;;;;;12.48;60.43;102689.75;5004587;28;113661;-70
2021/11/06 10:13:51;;;;;;;8.50;4.38;;;;;;;12.52;60.24;102683.44;5003071;28;124013;-71
2021/11/06 10:16:55;;;;;;;9.15;4.80;;;;;;;12.58;60.64;102686.00;4992166;28;122810;-71
2021/11/06 10:19:31;;;;;;;9.05;4.68;;;;;;;12.63;60.11;102677.88;5008851;28;114227;-71
2021/11/06 10:22:14;;;;;;;8.48;4.50;;;;;;;12.65;60.30;102684.91;5005061;28;114473;-71
2021/11/06 10:24:48;;;;;;;8.38;4.43;;;;;;;12.69;60.25;102682.19;5020718;28;124819;-71
2021/11/06 10:27:21;;;;;;;6.63;4.28;;;;;;;12.75;60.35;102682.03;5015029;28;123662;-71
2021/11/06 10:30:14;;;;;;;9.95;4.32;;;;;;;12.81;60.41;102687.22;5016424;28;114391;-70
2021/11/06 10:32:45;;;;;;;7.28;3.88;;;;;;;12.88;60.28;102678.16;5015813;28;113187;-71
2021/11/06 10:35:23;;;;;;;6.10;3.90;;;;;;;12.94;60.28;102678.00;5018659;28;123609;-70
2021/11/06 10:38:29;;;;;;;6.38;3.88;;;;;;;12.99;60.08;102670.75;5018174;28;123036;-71
2021/11/06 10:41:02;;;;;;;6.55;3.97;;;;;;;13.05;60.17;102675.94;4983179;28;116014;-71
2021/11/06 10:43:32;;;;;;;7.80;4.28;;;;;;;13.13;60.01;102662.44;5018491;28;113412;-71
2021/11/06 10:46:10;;;;;;;7.28;4.25;;;;;;;13.19;59.96;102653.44;5019869;28;124285;-71
2021/11/06 10:48:38;;;;;;;6.82;4.20;;;;;;;13.24;59.79;102651.50;5030946;28;124018;-71
2021/11/06 10:51:12;;;;;;;7.53;4.10;;;;;;;13.29;59.93;102646.94;5023324;28;113572;-71
2021/11/06 10:54:00;;;;;;;8.60;3.90;;;;;;;13.36;60.00;102648.53;5026050;28;114189;-70
2021/11/06 10:56:45;;;;;;;7.40;3.80;;;;;;;13.44;59.86;102646.53;5036438;28;124940;-70
2021/11/06 10:59:19;;;;;;;7.07;3.95;;;;;;;13.52;59.81;102642.78;5028811;28;124682;-71
2021/11/06 11:01:55;;;;;;;6.88;3.70;;;;;;;13.59;59.64;102633.72;5014039;28;113803;-71
2021/11/06 11:04:24;;;;;;;5.70;3.58;;;;;;;13.63;59.40;102640.69;5013537;28;114242;-71
2021/11/06 11:06:54;;;;;;;9.23;4.38;;;;;;;13.66;59.38;102631.75;5014078;28;123959;-72
2021/11/06 11:09:33;;;;;;;6.07;4.20;;;;;;;13.69;59.36;102628.97;5022709;28;123826;-71
2021/11/06 11:12:02;;;;;;;8.95;4.50;;;;;;;13.71;59.23;102628.03;5006100;28;113829;-71
2021/11/06 11:14:32;;;;;;;8.02;4.13;;;;;;;13.73;59.00;102626.19;5018716;28;114631;-71
2021/11/06 11:17:03;;;;;;;8.43;4.00;;;;;;;13.74;58.91;102617.28;5014142;28;124553;-72
2021/11/06 11:19:30;;;;;;;7.68;4.40;;;;;;;13.76;59.00;102615.44;5022640;28;124366;-72
2021/11/06 11:21:58;;;;;;;6.13;4.28;;;;;;;13.77;58.92;102617.19;5020249;28;114033;-72
2021/11/06 11:24:25;;;;;;;6.63;4.22;;;;;;;13.78;58.88;102610.94;5022184;28;114631;-72